createdAt,value
2017-07-17T00:00:26.975Z,22.20
2017-07-17T00:02:57.403Z,21.40
2017-07-17T00:05:26.911Z,20.80
2017-07-17T00:07:56.582Z,21.40
2017-07-17T00:10:26.284Z,22.00
2017-07-17T00:12:55.606Z,22.30
2017-07-17T00:15:25.065Z,22.60
2017-07-17T00:17:54.420Z,22.50
2017-07-17T00:20:23.861Z,22.40
2017-07-17T00:22:53.304Z,22.40
2017-07-17T00:25:23.029Z,22.40
2017-07-17T00:27:52.581Z,22.10
2017-07-17T00:30:22.190Z,21.70
2017-07-17T00:32:52.843Z,22.10
2017-07-17T00:35:22.524Z,20.70
2017-07-17T00:37:51.999Z,21.70
2017-07-17T00:40:21.568Z,21.20
2017-07-17T00:42:50.966Z,21.50
2017-07-17T00:45:20.359Z,22.30
2017-07-17T00:47:49.594Z,22.10
2017-07-17T00:50:19.142Z,22.40
2017-07-17T00:52:49.474Z,23.20
2017-07-17T00:55:19.193Z,23.10
2017-07-17T00:57:48.826Z,22.80
2017-07-17T01:00:18.078Z,22.00
2017-07-17T01:02:47.715Z,21.70
2017-07-17T01:05:17.234Z,21.60
2017-07-17T01:07:46.640Z,22.30
2017-07-17T01:10:16.211Z,22.20
2017-07-17T01:12:45.742Z,22.00
2017-07-17T01:15:15.171Z,21.90
2017-07-17T01:17:44.922Z,22.00
2017-07-17T01:20:14.612Z,22.00
2017-07-17T01:22:44.073Z,21.60
2017-07-17T01:25:13.409Z,22.40
2017-07-17T01:27:42.882Z,22.90
2017-07-17T01:30:12.255Z,23.20
2017-07-17T01:32:41.801Z,22.90
2017-07-17T01:35:12.574Z,23.00
2017-07-17T01:37:42.295Z,23.00
2017-07-17T01:40:12.412Z,23.10
2017-07-17T01:42:41.795Z,22.80
2017-07-17T01:45:11.356Z,22.70
2017-07-17T01:47:40.846Z,22.70
2017-07-17T01:50:10.381Z,23.10
2017-07-17T01:52:39.697Z,22.90
2017-07-17T01:55:09.171Z,22.90
2017-07-17T01:57:38.762Z,23.10
2017-07-17T02:00:08.149Z,22.30
2017-07-17T02:02:38.309Z,22.70
2017-07-17T02:05:08.181Z,22.60
2017-07-17T02:07:38.034Z,22.90
2017-07-17T02:10:07.107Z,22.80
2017-07-17T02:12:36.530Z,22.60
2017-07-17T02:15:06.128Z,22.50
2017-07-17T02:17:35.375Z,22.70
2017-07-17T02:20:04.840Z,22.90
2017-07-17T02:22:34.269Z,22.70
2017-07-17T02:25:03.792Z,23.40
2017-07-17T02:27:34.283Z,23.90
2017-07-17T02:30:03.461Z,23.80
2017-07-17T02:32:32.815Z,23.70
2017-07-17T02:35:02.203Z,24.10
2017-07-17T02:37:33.081Z,23.90
2017-07-17T02:40:02.590Z,23.70
2017-07-17T02:42:31.966Z,25.50
2017-07-17T02:45:01.299Z,25.40
2017-07-17T02:47:30.644Z,25.80
2017-07-17T02:50:00.142Z,25.70
2017-07-17T02:52:29.744Z,25.70
2017-07-17T02:54:59.179Z,26.10
2017-07-17T02:57:28.603Z,26.60
2017-07-17T02:59:58.141Z,26.80
2017-07-17T03:02:27.797Z,27.50
2017-07-17T03:04:57.357Z,27.90
2017-07-17T03:07:26.921Z,28.10
2017-07-17T03:09:56.547Z,29.50
2017-07-17T03:12:26.731Z,29.80
2017-07-17T03:14:56.316Z,30.10
2017-07-17T03:17:25.820Z,31.00
2017-07-17T03:19:55.337Z,31.70
2017-07-17T03:22:24.942Z,32.20
2017-07-17T03:24:54.504Z,33.30
2017-07-17T03:27:24.526Z,33.40
2017-07-17T03:29:54.331Z,33.30
2017-07-17T03:32:24.406Z,35.00
2017-07-17T03:34:53.807Z,34.30
2017-07-17T03:37:23.321Z,34.60
2017-07-17T03:39:54.592Z,35.80
2017-07-17T03:42:24.070Z,35.40
2017-07-17T03:44:56.608Z,36.00
2017-07-17T03:47:25.867Z,36.50
2017-07-17T03:49:55.332Z,37.20
2017-07-17T03:52:24.580Z,37.00
2017-07-17T03:54:53.877Z,37.10
2017-07-17T03:57:23.100Z,37.50
2017-07-17T03:59:53.322Z,38.50
2017-07-17T04:02:23.386Z,38.70
2017-07-17T04:04:53.020Z,38.70
2017-07-17T04:07:22.691Z,39.80
2017-07-17T04:09:52.267Z,39.80
2017-07-17T04:12:21.849Z,40.00
2017-07-17T04:14:51.541Z,40.60
2017-07-17T04:17:21.176Z,40.40
2017-07-17T04:19:50.573Z,40.70
2017-07-17T04:22:20.190Z,40.90
2017-07-17T04:24:49.402Z,41.10
2017-07-17T04:27:19.624Z,42.20
2017-07-17T04:29:49.654Z,42.20
2017-07-17T04:32:19.131Z,42.00
2017-07-17T04:34:48.917Z,43.90
2017-07-17T04:37:18.821Z,43.70
2017-07-17T04:39:48.856Z,44.40
2017-07-17T04:42:19.198Z,44.80
2017-07-17T04:44:47.947Z,45.80
2017-07-17T04:47:16.642Z,46.70
2017-07-17T04:49:46.188Z,47.70
2017-07-17T04:52:15.635Z,48.10
2017-07-17T04:54:45.207Z,48.80
2017-07-17T04:57:14.546Z,49.40
2017-07-17T04:59:43.640Z,50.60
2017-07-17T05:02:13.080Z,51.00
2017-07-17T05:04:42.651Z,51.40
2017-07-17T05:07:11.874Z,51.50
2017-07-17T05:09:41.492Z,52.40
2017-07-17T05:12:11.065Z,53.40
2017-07-17T05:14:40.167Z,53.40
2017-07-17T05:17:09.584Z,53.80
2017-07-17T05:19:38.689Z,53.90
2017-07-17T05:22:08.015Z,54.30
2017-07-17T05:24:37.632Z,54.90
2017-07-17T05:27:06.827Z,54.90
2017-07-17T05:29:35.859Z,55.20
2017-07-17T05:32:04.893Z,55.80
2017-07-17T05:34:34.285Z,55.80
2017-07-17T05:37:03.622Z,56.10
2017-07-17T05:39:33.091Z,57.10
2017-07-17T05:42:02.412Z,57.10
2017-07-17T05:44:32.701Z,57.30
2017-07-17T05:47:01.767Z,57.90
2017-07-17T05:49:31.780Z,58.60
2017-07-17T05:52:00.587Z,58.50
2017-07-17T05:54:29.294Z,58.90
2017-07-17T05:56:58.468Z,59.30
2017-07-17T05:59:31.317Z,59.80
2017-07-17T06:02:00.616Z,60.00
2017-07-17T06:04:29.914Z,60.00
2017-07-17T06:06:59.574Z,60.50
2017-07-17T06:09:29.067Z,60.20
2017-07-17T06:11:58.363Z,60.10
2017-07-17T06:14:27.716Z,60.80
2017-07-17T06:16:56.425Z,60.80
2017-07-17T06:19:25.635Z,60.40
2017-07-17T06:21:55.125Z,60.60
2017-07-17T06:24:24.438Z,60.80
2017-07-17T06:26:54.479Z,60.70
2017-07-17T06:29:24.694Z,60.70
2017-07-17T06:31:56.805Z,60.70
2017-07-17T06:34:27.602Z,61.20
2017-07-17T06:36:56.902Z,61.10
2017-07-17T06:39:25.965Z,61.70
2017-07-17T06:41:55.474Z,61.60
2017-07-17T06:44:26.562Z,62.40
2017-07-17T06:46:57.013Z,62.60
2017-07-17T06:49:26.219Z,62.50
2017-07-17T06:51:55.584Z,63.50
2017-07-17T06:54:24.911Z,62.90
2017-07-17T06:56:54.269Z,62.80
2017-07-17T06:59:22.986Z,63.30
2017-07-17T07:01:52.306Z,63.40
2017-07-17T07:04:21.635Z,63.60
2017-07-17T07:06:50.982Z,64.20
2017-07-17T07:09:20.592Z,63.70
2017-07-17T07:11:50.223Z,64.00
2017-07-17T07:14:19.901Z,63.90
2017-07-17T07:16:49.327Z,64.20
2017-07-17T07:19:18.879Z,64.40
2017-07-17T07:21:47.764Z,64.50
2017-07-17T07:24:16.995Z,64.30
2017-07-17T07:26:46.880Z,64.80
2017-07-17T07:29:16.417Z,64.90
2017-07-17T07:31:45.905Z,65.30
2017-07-17T07:34:17.061Z,65.30
2017-07-17T07:36:47.366Z,65.60
2017-07-17T07:39:17.414Z,65.50
2017-07-17T07:41:46.907Z,65.70
2017-07-17T07:44:16.348Z,65.30
2017-07-17T07:46:45.791Z,65.80
2017-07-17T07:49:16.303Z,65.00
2017-07-17T07:51:45.649Z,65.40
2017-07-17T07:54:14.926Z,65.50
2017-07-17T07:56:44.479Z,65.20
2017-07-17T07:59:13.903Z,65.20
2017-07-17T08:01:43.504Z,64.90
2017-07-17T08:04:12.841Z,64.90
2017-07-17T08:06:42.000Z,65.00
2017-07-17T08:09:11.236Z,65.10
2017-07-17T08:11:40.599Z,65.20
2017-07-17T08:14:10.178Z,65.10
2017-07-17T08:16:40.180Z,65.50
2017-07-17T08:19:09.127Z,65.50
2017-07-17T08:21:38.278Z,65.80
2017-07-17T08:24:07.496Z,65.90
2017-07-17T08:26:36.781Z,65.50
2017-07-17T08:29:05.885Z,66.30
2017-07-17T08:31:35.193Z,66.20
2017-07-17T08:34:04.181Z,66.00
2017-07-17T08:36:33.415Z,66.40
2017-07-17T08:39:02.836Z,67.20
2017-07-17T08:41:32.413Z,67.00
2017-07-17T08:44:01.583Z,67.10
2017-07-17T08:46:30.823Z,67.00
2017-07-17T08:49:00.129Z,67.40
2017-07-17T08:51:30.665Z,67.60
2017-07-17T08:53:59.996Z,67.90
2017-07-17T08:56:29.377Z,67.90
2017-07-17T08:58:58.805Z,68.60
2017-07-17T09:01:28.431Z,68.10
2017-07-17T09:03:57.935Z,68.20
2017-07-17T09:06:27.464Z,69.50
2017-07-17T09:08:56.919Z,70.10
2017-07-17T09:11:27.061Z,70.10
2017-07-17T09:13:56.605Z,70.10
2017-07-17T09:16:26.142Z,70.10
2017-07-17T09:18:55.430Z,69.80
2017-07-17T09:21:24.762Z,70.50
2017-07-17T09:23:54.222Z,70.20
2017-07-17T09:26:23.516Z,70.40
2017-07-17T09:28:53.081Z,70.60
2017-07-17T09:31:22.436Z,70.40
2017-07-17T09:33:51.650Z,72.20
2017-07-17T09:36:21.026Z,72.30
2017-07-17T09:38:50.452Z,72.00
2017-07-17T09:41:19.526Z,72.60
2017-07-17T09:43:48.862Z,72.60
2017-07-17T09:46:18.037Z,72.50
2017-07-17T09:48:47.238Z,72.30
2017-07-17T09:51:16.634Z,72.80
2017-07-17T09:53:46.636Z,73.30
2017-07-17T09:56:15.837Z,74.20
2017-07-17T09:58:44.931Z,74.20
2017-07-17T10:01:14.360Z,75.00
2017-07-17T10:03:43.542Z,75.50
2017-07-17T10:06:12.905Z,76.40
2017-07-17T10:08:42.439Z,76.80
2017-07-17T10:11:11.543Z,76.90
2017-07-17T10:13:41.094Z,76.80
2017-07-17T10:16:10.397Z,76.90
2017-07-17T10:18:39.469Z,77.30
2017-07-17T10:21:08.788Z,77.20
2017-07-17T10:23:38.975Z,76.90
2017-07-17T10:26:08.136Z,76.80
2017-07-17T10:28:37.490Z,76.80
2017-07-17T10:31:06.646Z,76.80
2017-07-17T10:33:36.635Z,76.90
2017-07-17T10:36:06.098Z,76.80
2017-07-17T10:38:35.366Z,76.80
2017-07-17T10:41:04.775Z,77.30
2017-07-17T10:43:33.900Z,78.80
2017-07-17T10:46:03.269Z,78.40
2017-07-17T10:48:32.650Z,78.40
2017-07-17T10:51:01.888Z,78.50
2017-07-17T10:53:31.404Z,78.90
2017-07-17T10:56:01.974Z,78.80
2017-07-17T10:58:31.362Z,78.40
2017-07-17T11:01:00.710Z,78.20
2017-07-17T11:03:29.843Z,78.90
2017-07-17T11:05:59.208Z,78.60
2017-07-17T11:08:28.401Z,77.90
2017-07-17T11:10:57.709Z,78.60
2017-07-17T11:13:27.027Z,78.00
2017-07-17T11:15:56.147Z,78.70
2017-07-17T11:18:26.256Z,78.80
2017-07-17T11:20:55.986Z,78.30
2017-07-17T11:23:25.296Z,78.40
2017-07-17T11:25:55.542Z,79.50
2017-07-17T11:28:24.692Z,79.50
2017-07-17T11:30:54.127Z,79.00
2017-07-17T11:33:24.006Z,80.10
2017-07-17T11:35:53.517Z,80.10
2017-07-17T11:38:22.896Z,82.20
2017-07-17T11:40:52.360Z,81.80
2017-07-17T11:43:21.559Z,84.40
2017-07-17T11:45:51.895Z,85.20
2017-07-17T11:58:31.681Z,85.80
2017-07-17T12:01:00.882Z,88.10
2017-07-17T12:03:29.996Z,88.10
2017-07-17T12:05:59.479Z,89.50
2017-07-17T12:08:28.624Z,88.90
2017-07-17T12:10:57.937Z,89.10
2017-07-17T12:13:28.988Z,88.60
2017-07-17T12:15:58.307Z,87.90
2017-07-17T12:18:27.572Z,89.00
2017-07-17T12:20:56.780Z,89.10
2017-07-17T12:23:25.951Z,90.30
2017-07-17T12:25:55.160Z,90.40
2017-07-17T12:28:24.417Z,90.50
2017-07-17T12:30:53.561Z,90.40
2017-07-17T12:33:23.544Z,89.90
2017-07-17T12:35:52.653Z,90.30
2017-07-17T12:38:22.030Z,90.60
2017-07-17T12:40:51.292Z,91.20
2017-07-17T12:43:20.472Z,91.10
2017-07-17T12:45:56.551Z,90.80
2017-07-17T12:48:25.830Z,90.70
2017-07-17T12:50:55.164Z,90.80
2017-07-17T12:53:24.422Z,91.00
2017-07-17T12:55:53.569Z,90.70
2017-07-17T12:58:23.825Z,90.20
2017-07-17T13:00:53.056Z,90.40
2017-07-17T13:03:22.473Z,90.10
2017-07-17T13:05:51.726Z,90.40
2017-07-17T13:08:20.811Z,90.20
2017-07-17T13:10:50.979Z,90.10
2017-07-17T13:13:20.209Z,90.10
2017-07-17T13:15:49.605Z,89.90
2017-07-17T13:18:18.864Z,89.00
2017-07-17T13:20:48.339Z,89.60
2017-07-17T13:23:17.700Z,89.00
2017-07-17T13:25:54.245Z,88.90
2017-07-17T13:28:25.045Z,88.90
2017-07-17T13:30:55.350Z,89.00
2017-07-17T13:33:24.510Z,89.00
2017-07-17T13:35:53.819Z,88.70
2017-07-17T13:38:23.285Z,89.30
2017-07-17T13:40:52.845Z,89.20
2017-07-17T13:43:21.912Z,89.60
2017-07-17T13:45:51.638Z,89.00
2017-07-17T13:48:21.065Z,88.90
2017-07-17T13:50:50.305Z,89.30
2017-07-17T13:53:19.644Z,88.20
2017-07-17T13:55:48.957Z,86.80
2017-07-17T13:58:18.276Z,86.80
2017-07-17T14:00:48.426Z,85.80
2017-07-17T14:03:17.738Z,85.20
2017-07-17T14:05:47.049Z,84.60
2017-07-17T14:08:16.363Z,83.20
2017-07-17T14:10:45.563Z,82.50
2017-07-17T14:13:14.961Z,80.50
2017-07-17T14:15:44.294Z,80.50
2017-07-17T14:18:13.614Z,81.50
2017-07-17T14:20:43.058Z,77.70
2017-07-17T14:23:12.663Z,76.30
2017-07-17T14:25:41.899Z,75.80
2017-07-17T14:28:11.467Z,75.30
2017-07-17T14:30:41.043Z,74.90
2017-07-17T14:33:11.586Z,74.70
2017-07-17T14:35:41.215Z,75.70
2017-07-17T14:38:10.336Z,74.90
2017-07-17T14:40:39.504Z,74.60
2017-07-17T14:43:11.001Z,75.00
2017-07-17T14:45:41.392Z,74.40
2017-07-17T14:48:11.169Z,73.20
2017-07-17T14:50:41.810Z,70.70
2017-07-17T14:53:11.736Z,71.20
2017-07-17T14:55:40.518Z,71.80
2017-07-17T14:58:09.198Z,71.30
2017-07-17T15:00:38.305Z,67.60
2017-07-17T15:03:08.312Z,68.40
2017-07-17T15:05:37.620Z,68.00
2017-07-17T15:08:06.608Z,68.10
2017-07-17T15:10:36.272Z,65.40
2017-07-17T15:13:06.424Z,64.50
2017-07-17T15:15:35.984Z,59.00
2017-07-17T15:18:05.685Z,52.10
2017-07-17T15:20:35.474Z,45.00
2017-07-17T15:23:04.681Z,43.60
2017-07-17T15:25:34.202Z,41.00
2017-07-17T15:28:03.417Z,36.70
2017-07-17T15:30:32.835Z,34.40
2017-07-17T15:33:02.143Z,30.90
2017-07-17T15:35:31.590Z,29.90
2017-07-17T15:38:01.022Z,25.70
2017-07-17T15:40:30.052Z,25.40
2017-07-17T15:42:59.269Z,24.40
2017-07-17T15:45:28.651Z,21.10
2017-07-17T15:47:58.012Z,20.70
2017-07-17T15:50:27.224Z,18.70
2017-07-17T15:52:56.553Z,19.40
2017-07-17T15:55:25.778Z,18.50
2017-07-17T15:57:54.752Z,14.50
2017-07-17T16:00:24.829Z,13.70
2017-07-17T16:02:53.889Z,13.60
2017-07-17T16:05:23.916Z,15.30
2017-07-17T16:07:53.162Z,14.60
2017-07-17T16:10:22.316Z,14.90
2017-07-17T16:12:51.451Z,15.10
2017-07-17T16:15:20.719Z,14.40
2017-07-17T16:18:00.523Z,12.30
2017-07-17T16:20:32.996Z,12.50
2017-07-17T16:23:02.314Z,12.20
2017-07-17T16:25:31.620Z,10.60
2017-07-17T16:28:00.948Z,10.90
2017-07-17T16:30:30.471Z,9.60
2017-07-17T16:32:59.675Z,8.60
2017-07-17T16:35:28.842Z,10.70
2017-07-17T16:37:58.433Z,9.30
2017-07-17T16:40:28.584Z,9.40
2017-07-17T16:42:57.790Z,9.40
2017-07-17T16:45:27.165Z,8.90
2017-07-17T16:47:56.478Z,9.70
2017-07-17T16:50:25.960Z,8.70
2017-07-17T16:52:55.211Z,7.90
2017-07-17T16:55:24.526Z,7.10
2017-07-17T16:57:53.595Z,7.80
2017-07-17T17:00:22.843Z,8.10
2017-07-17T17:02:52.103Z,7.00
2017-07-17T17:05:21.306Z,7.50
2017-07-17T17:07:51.590Z,8.00
2017-07-17T17:10:21.076Z,8.80
2017-07-17T17:12:50.222Z,8.70
2017-07-17T17:15:19.632Z,7.80
2017-07-17T17:17:48.954Z,7.20
2017-07-17T17:20:19.151Z,5.90
2017-07-17T17:22:48.458Z,6.10
2017-07-17T17:25:18.055Z,7.00
2017-07-17T17:27:47.464Z,8.20
2017-07-17T17:30:16.819Z,6.20
2017-07-17T17:32:46.120Z,7.70
2017-07-17T17:35:15.629Z,7.00
2017-07-17T17:37:44.790Z,7.30
2017-07-17T17:40:13.949Z,6.80
2017-07-17T17:42:43.286Z,8.00
2017-07-17T17:45:12.588Z,8.70
2017-07-17T17:47:41.808Z,11.00
2017-07-17T17:50:11.016Z,9.30
2017-07-17T17:52:40.366Z,8.80
2017-07-17T17:55:11.074Z,9.80
2017-07-17T17:57:41.591Z,8.50
2017-07-17T18:00:10.883Z,9.70
2017-07-17T18:02:40.098Z,8.70
2017-07-17T18:05:09.336Z,9.70
2017-07-17T18:07:39.936Z,9.10
2017-07-17T18:10:09.966Z,11.90
2017-07-17T18:12:38.999Z,11.50
2017-07-17T18:15:08.241Z,10.70
2017-07-17T18:17:38.765Z,9.80
2017-07-17T18:20:09.344Z,9.70
2017-07-17T18:22:38.711Z,9.40
2017-07-17T18:25:08.200Z,10.70
2017-07-17T18:27:37.245Z,9.50
2017-07-17T18:30:06.536Z,8.00
2017-07-17T18:32:35.987Z,9.60
2017-07-17T18:35:05.454Z,9.90
2017-07-17T18:37:34.969Z,8.90
2017-07-17T18:40:04.043Z,8.10
2017-07-17T18:42:40.082Z,8.60
2017-07-17T18:45:09.266Z,8.20
2017-07-17T18:47:38.596Z,8.10
2017-07-17T18:50:07.792Z,8.20
2017-07-17T18:52:37.303Z,8.30
2017-07-17T18:55:06.789Z,6.50
2017-07-17T18:57:35.879Z,7.90
2017-07-17T19:00:05.324Z,8.10
2017-07-17T19:02:34.462Z,6.40
2017-07-17T19:05:03.726Z,7.20
2017-07-17T19:07:32.905Z,7.70
2017-07-17T19:10:02.091Z,7.90
2017-07-17T19:12:32.262Z,7.40
2017-07-17T19:15:02.257Z,7.70
2017-07-17T19:17:31.532Z,8.50
2017-07-17T19:20:00.965Z,7.80
2017-07-17T19:22:31.422Z,9.00
2017-07-17T19:25:00.884Z,9.00
2017-07-17T19:27:30.404Z,8.00
2017-07-17T19:30:00.599Z,11.00
2017-07-17T19:32:29.777Z,10.90
2017-07-17T19:34:59.047Z,9.30
2017-07-17T19:37:28.397Z,10.90
2017-07-17T19:39:57.938Z,9.80
2017-07-17T19:42:27.901Z,11.90
2017-07-17T19:44:57.194Z,11.90
2017-07-17T19:47:26.504Z,9.40
2017-07-17T19:49:56.026Z,10.80
2017-07-17T19:52:25.487Z,10.30
2017-07-17T19:54:54.827Z,9.60
2017-07-17T19:57:24.497Z,10.60
2017-07-17T19:59:53.875Z,10.40
2017-07-17T20:02:23.344Z,12.70
2017-07-17T20:04:52.694Z,14.30
2017-07-17T20:07:21.932Z,14.80
2017-07-17T20:09:51.253Z,16.10
2017-07-17T20:12:20.603Z,18.20
2017-07-17T20:14:53.228Z,16.90
2017-07-17T20:17:22.499Z,16.20
2017-07-17T20:19:52.178Z,18.00
2017-07-17T20:22:21.913Z,21.50
2017-07-17T20:24:51.378Z,21.00
2017-07-17T20:27:20.976Z,20.50
2017-07-17T20:29:50.392Z,21.00
2017-07-17T20:32:19.556Z,21.30
2017-07-17T20:34:48.938Z,22.70
2017-07-17T20:37:18.055Z,22.40
2017-07-17T20:39:47.340Z,20.80
2017-07-17T20:42:16.573Z,20.70
2017-07-17T20:44:46.522Z,20.00
2017-07-17T20:47:16.206Z,20.50
2017-07-17T20:49:45.449Z,21.10
2017-07-17T20:52:14.990Z,22.20
2017-07-17T20:54:44.495Z,20.80
2017-07-17T20:57:13.816Z,21.70
2017-07-17T20:59:43.975Z,21.20
2017-07-17T21:02:13.256Z,21.30
2017-07-17T21:04:42.500Z,21.00
2017-07-17T21:07:11.713Z,20.90
2017-07-17T21:09:40.814Z,21.80
2017-07-17T21:12:10.043Z,20.70
2017-07-17T21:14:40.684Z,21.80
2017-07-17T21:17:11.297Z,20.70
2017-07-17T21:19:41.392Z,20.80
2017-07-17T21:22:10.823Z,21.10
2017-07-17T21:24:41.410Z,20.80
2017-07-17T21:27:10.476Z,20.70
2017-07-17T21:29:39.837Z,21.50
2017-07-17T21:32:09.149Z,20.30
2017-07-17T21:34:38.428Z,21.30
2017-07-17T21:37:07.833Z,20.00
2017-07-17T21:39:38.190Z,19.80
2017-07-17T21:42:07.708Z,18.70
2017-07-17T21:44:36.953Z,20.00
2017-07-17T21:47:06.082Z,20.80
2017-07-17T21:49:35.583Z,19.50
2017-07-17T21:52:05.815Z,19.90
2017-07-17T21:54:35.958Z,20.60
2017-07-17T21:57:05.109Z,20.50
2017-07-17T21:59:34.371Z,19.80
2017-07-17T22:02:03.770Z,19.60
2017-07-17T22:04:32.940Z,18.60
2017-07-17T22:07:03.400Z,19.10
2017-07-17T22:09:32.726Z,19.50
2017-07-17T22:12:04.175Z,19.80
2017-07-17T22:14:33.350Z,19.30
2017-07-17T22:17:02.843Z,19.70
2017-07-17T22:19:33.027Z,19.60
2017-07-17T22:22:04.058Z,18.90
2017-07-17T22:24:33.451Z,18.90
2017-07-17T22:27:02.641Z,18.50
2017-07-17T22:29:31.346Z,18.60
2017-07-17T22:32:01.726Z,19.30
2017-07-17T22:34:31.586Z,18.20
2017-07-17T22:37:09.212Z,18.80
2017-07-17T22:39:39.274Z,19.20
2017-07-17T22:42:08.490Z,18.80
2017-07-17T22:44:37.651Z,18.70
2017-07-17T22:47:07.101Z,18.70
2017-07-17T22:49:37.646Z,18.20
2017-07-17T22:52:06.641Z,19.00
2017-07-17T22:54:36.162Z,17.90
2017-07-17T22:57:06.708Z,18.00
2017-07-17T22:59:36.086Z,18.70
2017-07-17T23:02:05.285Z,18.10
2017-07-17T23:04:34.450Z,18.50
2017-07-17T23:07:04.229Z,18.80
2017-07-17T23:09:36.905Z,18.20
2017-07-17T23:12:19.129Z,18.60
2017-07-17T23:14:50.939Z,17.30
2017-07-17T23:17:20.384Z,17.30
2017-07-17T23:19:51.479Z,17.60
2017-07-17T23:22:20.870Z,17.80
2017-07-17T23:24:50.987Z,17.30
2017-07-17T23:27:20.230Z,17.20
2017-07-17T23:29:49.618Z,17.80
2017-07-17T23:32:19.065Z,17.70
2017-07-17T23:34:48.258Z,17.50
2017-07-17T23:37:17.615Z,17.30
2017-07-17T23:39:46.971Z,17.20
2017-07-17T23:42:16.259Z,16.30
2017-07-17T23:44:45.017Z,15.90
2017-07-17T23:47:14.385Z,16.70
2017-07-17T23:49:43.552Z,15.60
2017-07-17T23:52:12.640Z,15.80
2017-07-17T23:54:42.105Z,15.70
2017-07-17T23:57:12.195Z,16.40
2017-07-17T23:59:41.446Z,16.30
